sensor_id;sensor_type;location;lat;lon;timestamp;temperature;humidity
7218;DHT22;3650;53.580;10.094;2024-03-22T00:00:20;11.70;89.40
7218;DHT22;3650;53.580;10.094;2024-03-22T00:02:46;11.70;89.50
7218;DHT22;3650;53.580;10.094;2024-03-22T00:05:13;11.70;89.30
7218;DHT22;3650;53.580;10.094;2024-03-22T00:07:39;11.70;90.10
7218;DHT22;3650;53.580;10.094;2024-03-22T00:10:06;11.70;89.50
7218;DHT22;3650;53.580;10.094;2024-03-22T00:12:32;11.70;89.60
7218;DHT22;3650;53.580;10.094;2024-03-22T00:15:00;11.70;89.70
7218;DHT22;3650;53.580;10.094;2024-03-22T00:17:26;11.70;89.70
7218;DHT22;3650;53.580;10.094;2024-03-22T00:19:53;11.70;89.50
7218;DHT22;3650;53.580;10.094;2024-03-22T00:22:19;11.70;89.80
7218;DHT22;3650;53.580;10.094;2024-03-22T00:24:46;11.80;90.00
7218;DHT22;3650;53.580;10.094;2024-03-22T00:27:11;11.80;89.90
7218;DHT22;3650;53.580;10.094;2024-03-22T00:29:38;11.70;90.00
7218;DHT22;3650;53.580;10.094;2024-03-22T00:32:06;11.70;90.00
7218;DHT22;3650;53.580;10.094;2024-03-22T00:34:33;11.70;90.20
7218;DHT22;3650;53.580;10.094;2024-03-22T00:36:59;11.70;90.20
7218;DHT22;3650;53.580;10.094;2024-03-22T00:39:26;11.70;90.30
7218;DHT22;3650;53.580;10.094;2024-03-22T00:41:52;11.70;90.30
7218;DHT22;3650;53.580;10.094;2024-03-22T00:44:19;11.80;90.30
7218;DHT22;3650;53.580;10.094;2024-03-22T00:46:45;11.80;90.30
7218;DHT22;3650;53.580;10.094;2024-03-22T00:49:13;11.80;90.20
7218;DHT22;3650;53.580;10.094;2024-03-22T00:51:39;11.80;90.30
7218;DHT22;3650;53.580;10.094;2024-03-22T00:54:08;11.80;90.20
7218;DHT22;3650;53.580;10.094;2024-03-22T00:56:34;11.80;90.20
7218;DHT22;3650;53.580;10.094;2024-03-22T00:59:01;11.80;90.10
7218;DHT22;3650;53.580;10.094;2024-03-22T01:01:27;11.80;90.10
7218;DHT22;3650;53.580;10.094;2024-03-22T01:03:54;11.80;90.30
7218;DHT22;3650;53.580;10.094;2024-03-22T01:06:21;11.80;90.30
7218;DHT22;3650;53.580;10.094;2024-03-22T01:08:50;11.80;90.20
7218;DHT22;3650;53.580;10.094;2024-03-22T01:11:17;11.80;90.20
7218;DHT22;3650;53.580;10.094;2024-03-22T01:13:44;11.90;90.20
7218;DHT22;3650;53.580;10.094;2024-03-22T01:16:10;11.80;90.10
7218;DHT22;3650;53.580;10.094;2024-03-22T01:18:37;11.90;90.20
7218;DHT22;3650;53.580;10.094;2024-03-22T01:21:04;11.90;90.20
7218;DHT22;3650;53.580;10.094;2024-03-22T01:23:33;11.90;90.10
7218;DHT22;3650;53.580;10.094;2024-03-22T01:25:59;11.90;90.00
7218;DHT22;3650;53.580;10.094;2024-03-22T01:28:26;11.90;90.00
7218;DHT22;3650;53.580;10.094;2024-03-22T01:30:51;11.90;90.00
7218;DHT22;3650;53.580;10.094;2024-03-22T01:33:18;11.90;90.00
7218;DHT22;3650;53.580;10.094;2024-03-22T01:35:44;11.90;89.70
7218;DHT22;3650;53.580;10.094;2024-03-22T01:38:11;11.90;89.80
7218;DHT22;3650;53.580;10.094;2024-03-22T01:40:38;11.90;89.70
7218;DHT22;3650;53.580;10.094;2024-03-22T01:43:05;11.90;89.50
7218;DHT22;3650;53.580;10.094;2024-03-22T01:45:32;11.90;89.30
7218;DHT22;3650;53.580;10.094;2024-03-22T01:48:00;11.90;89.50
7218;DHT22;3650;53.580;10.094;2024-03-22T01:50:27;11.90;89.40
7218;DHT22;3650;53.580;10.094;2024-03-22T01:52:54;11.90;89.10
7218;DHT22;3650;53.580;10.094;2024-03-22T01:55:20;11.90;89.20
7218;DHT22;3650;53.580;10.094;2024-03-22T01:57:49;11.90;89.30
7218;DHT22;3650;53.580;10.094;2024-03-22T02:00:17;12.00;89.10
7218;DHT22;3650;53.580;10.094;2024-03-22T02:02:44;11.90;89.20
7218;DHT22;3650;53.580;10.094;2024-03-22T02:05:13;11.90;89.30
7218;DHT22;3650;53.580;10.094;2024-03-22T02:07:41;11.90;89.50
7218;DHT22;3650;53.580;10.094;2024-03-22T02:10:07;11.90;89.70
7218;DHT22;3650;53.580;10.094;2024-03-22T02:12:36;11.90;89.60
7218;DHT22;3650;53.580;10.094;2024-03-22T02:15:04;11.90;89.60
7218;DHT22;3650;53.580;10.094;2024-03-22T02:17:32;11.90;90.00
7218;DHT22;3650;53.580;10.094;2024-03-22T02:19:58;11.90;90.10
7218;DHT22;3650;53.580;10.094;2024-03-22T02:22:26;11.90;90.00
7218;DHT22;3650;53.580;10.094;2024-03-22T02:24:53;11.90;90.00
7218;DHT22;3650;53.580;10.094;2024-03-22T02:27:20;11.90;90.00
7218;DHT22;3650;53.580;10.094;2024-03-22T02:29:46;11.90;90.10
7218;DHT22;3650;53.580;10.094;2024-03-22T02:32:12;11.90;90.10
7218;DHT22;3650;53.580;10.094;2024-03-22T02:34:38;11.90;90.20
7218;DHT22;3650;53.580;10.094;2024-03-22T02:37:05;11.90;90.20
7218;DHT22;3650;53.580;10.094;2024-03-22T02:39:31;11.90;90.40
7218;DHT22;3650;53.580;10.094;2024-03-22T02:41:59;11.90;90.40
7218;DHT22;3650;53.580;10.094;2024-03-22T02:44:25;12.00;90.40
7218;DHT22;3650;53.580;10.094;2024-03-22T02:46:52;12.00;90.50
7218;DHT22;3650;53.580;10.094;2024-03-22T02:49:18;12.00;90.60
7218;DHT22;3650;53.580;10.094;2024-03-22T02:51:44;12.00;90.60
7218;DHT22;3650;53.580;10.094;2024-03-22T02:54:11;12.00;90.60
7218;DHT22;3650;53.580;10.094;2024-03-22T02:56:37;12.00;90.50
7218;DHT22;3650;53.580;10.094;2024-03-22T02:59:04;12.00;90.50
7218;DHT22;3650;53.580;10.094;2024-03-22T03:01:31;12.00;90.60
7218;DHT22;3650;53.580;10.094;2024-03-22T03:03:57;12.00;90.80
7218;DHT22;3650;53.580;10.094;2024-03-22T03:06:24;12.00;90.90
7218;DHT22;3650;53.580;10.094;2024-03-22T03:08:50;12.00;91.00
7218;DHT22;3650;53.580;10.094;2024-03-22T03:11:16;12.00;91.00
7218;DHT22;3650;53.580;10.094;2024-03-22T03:13:42;12.00;91.30
7218;DHT22;3650;53.580;10.094;2024-03-22T03:16:10;12.00;91.30
7218;DHT22;3650;53.580;10.094;2024-03-22T03:18:36;12.00;91.20
7218;DHT22;3650;53.580;10.094;2024-03-22T03:21:03;12.00;91.30
7218;DHT22;3650;53.580;10.094;2024-03-22T03:23:29;12.00;91.40
7218;DHT22;3650;53.580;10.094;2024-03-22T03:25:56;12.10;91.40
7218;DHT22;3650;53.580;10.094;2024-03-22T03:28:21;12.00;91.40
7218;DHT22;3650;53.580;10.094;2024-03-22T03:30:51;12.10;91.50
7218;DHT22;3650;53.580;10.094;2024-03-22T03:33:18;12.00;91.50
7218;DHT22;3650;53.580;10.094;2024-03-22T03:35:45;12.00;91.40
7218;DHT22;3650;53.580;10.094;2024-03-22T03:38:11;12.10;91.50
7218;DHT22;3650;53.580;10.094;2024-03-22T03:40:38;12.10;91.50
7218;DHT22;3650;53.580;10.094;2024-03-22T03:43:04;12.10;91.50
7218;DHT22;3650;53.580;10.094;2024-03-22T03:45:31;12.00;91.40
7218;DHT22;3650;53.580;10.094;2024-03-22T03:47:56;12.00;91.50
7218;DHT22;3650;53.580;10.094;2024-03-22T03:50:25;12.00;91.70
7218;DHT22;3650;53.580;10.094;2024-03-22T03:52:50;12.10;91.80
7218;DHT22;3650;53.580;10.094;2024-03-22T03:55:17;12.10;91.80
7218;DHT22;3650;53.580;10.094;2024-03-22T03:57:43;12.10;92.00
7218;DHT22;3650;53.580;10.094;2024-03-22T04:00:10;12.10;92.00
7218;DHT22;3650;53.580;10.094;2024-03-22T04:02:36;12.10;92.20
7218;DHT22;3650;53.580;10.094;2024-03-22T04:05:03;12.10;92.00
7218;DHT22;3650;53.580;10.094;2024-03-22T04:07:31;12.10;92.20
7218;DHT22;3650;53.580;10.094;2024-03-22T04:09:58;12.10;92.20
7218;DHT22;3650;53.580;10.094;2024-03-22T04:12:25;12.10;92.20
7218;DHT22;3650;53.580;10.094;2024-03-22T04:14:52;12.10;92.20
7218;DHT22;3650;53.580;10.094;2024-03-22T04:17:18;12.10;92.20
7218;DHT22;3650;53.580;10.094;2024-03-22T04:19:45;12.10;92.30
7218;DHT22;3650;53.580;10.094;2024-03-22T04:22:11;12.10;92.50
7218;DHT22;3650;53.580;10.094;2024-03-22T04:24:39;12.10;92.60
7218;DHT22;3650;53.580;10.094;2024-03-22T04:27:05;12.10;92.60
7218;DHT22;3650;53.580;10.094;2024-03-22T04:29:32;12.10;92.50
7218;DHT22;3650;53.580;10.094;2024-03-22T04:31:58;12.20;92.40
7218;DHT22;3650;53.580;10.094;2024-03-22T04:34:25;12.20;92.30
7218;DHT22;3650;53.580;10.094;2024-03-22T04:36:51;12.20;92.30
7218;DHT22;3650;53.580;10.094;2024-03-22T04:39:19;12.20;92.20
7218;DHT22;3650;53.580;10.094;2024-03-22T04:41:47;12.20;92.20
7218;DHT22;3650;53.580;10.094;2024-03-22T04:44:14;12.20;92.20
7218;DHT22;3650;53.580;10.094;2024-03-22T04:46:41;12.20;92.20
7218;DHT22;3650;53.580;10.094;2024-03-22T04:49:07;12.20;92.20
7218;DHT22;3650;53.580;10.094;2024-03-22T04:51:34;12.20;92.20
7218;DHT22;3650;53.580;10.094;2024-03-22T04:54:00;12.20;92.20
7218;DHT22;3650;53.580;10.094;2024-03-22T04:56:27;12.20;92.20
7218;DHT22;3650;53.580;10.094;2024-03-22T04:58:54;12.20;92.30
7218;DHT22;3650;53.580;10.094;2024-03-22T05:01:21;12.20;92.30
7218;DHT22;3650;53.580;10.094;2024-03-22T05:03:49;12.20;92.40
7218;DHT22;3650;53.580;10.094;2024-03-22T05:06:16;12.20;92.50
7218;DHT22;3650;53.580;10.094;2024-03-22T05:08:41;12.20;92.40
7218;DHT22;3650;53.580;10.094;2024-03-22T05:11:08;12.30;92.50
7218;DHT22;3650;53.580;10.094;2024-03-22T05:13:34;12.30;92.30
7218;DHT22;3650;53.580;10.094;2024-03-22T05:16:02;12.30;92.30
7218;DHT22;3650;53.580;10.094;2024-03-22T05:18:28;12.30;92.20
7218;DHT22;3650;53.580;10.094;2024-03-22T05:20:55;12.30;92.20
7218;DHT22;3650;53.580;10.094;2024-03-22T05:23:21;12.30;92.20
7218;DHT22;3650;53.580;10.094;2024-03-22T05:25:48;12.30;92.60
7218;DHT22;3650;53.580;10.094;2024-03-22T05:28:14;12.30;92.30
7218;DHT22;3650;53.580;10.094;2024-03-22T05:30:41;12.30;92.50
7218;DHT22;3650;53.580;10.094;2024-03-22T05:33:08;12.30;92.70
7218;DHT22;3650;53.580;10.094;2024-03-22T05:35:35;12.30;92.70
7218;DHT22;3650;53.580;10.094;2024-03-22T05:38:00;12.30;92.80
7218;DHT22;3650;53.580;10.094;2024-03-22T05:40:27;12.30;92.80
7218;DHT22;3650;53.580;10.094;2024-03-22T05:42:53;12.30;92.80
7218;DHT22;3650;53.580;10.094;2024-03-22T05:45:20;12.40;92.80
7218;DHT22;3650;53.580;10.094;2024-03-22T05:47:45;12.30;92.80
7218;DHT22;3650;53.580;10.094;2024-03-22T05:50:14;12.40;92.80
7218;DHT22;3650;53.580;10.094;2024-03-22T05:52:40;12.40;92.90
7218;DHT22;3650;53.580;10.094;2024-03-22T05:55:07;12.40;92.90
7218;DHT22;3650;53.580;10.094;2024-03-22T05:57:33;12.40;93.10
7218;DHT22;3650;53.580;10.094;2024-03-22T05:59:59;12.40;93.20
7218;DHT22;3650;53.580;10.094;2024-03-22T06:02:25;12.40;93.30
7218;DHT22;3650;53.580;10.094;2024-03-22T06:04:52;12.40;93.30
7218;DHT22;3650;53.580;10.094;2024-03-22T06:07:19;12.40;93.30
7218;DHT22;3650;53.580;10.094;2024-03-22T06:09:46;12.40;93.50
7218;DHT22;3650;53.580;10.094;2024-03-22T06:12:12;12.40;93.60
7218;DHT22;3650;53.580;10.094;2024-03-22T06:14:39;12.40;93.50
7218;DHT22;3650;53.580;10.094;2024-03-22T06:17:05;12.40;93.60
7218;DHT22;3650;53.580;10.094;2024-03-22T06:19:32;12.40;93.90
7218;DHT22;3650;53.580;10.094;2024-03-22T06:21:58;12.40;94.00
7218;DHT22;3650;53.580;10.094;2024-03-22T06:24:26;12.40;94.10
7218;DHT22;3650;53.580;10.094;2024-03-22T06:26:52;12.40;94.10
7218;DHT22;3650;53.580;10.094;2024-03-22T06:29:19;12.40;94.10
7218;DHT22;3650;53.580;10.094;2024-03-22T06:31:46;12.50;94.20
7218;DHT22;3650;53.580;10.094;2024-03-22T06:34:12;12.50;94.20
7218;DHT22;3650;53.580;10.094;2024-03-22T06:36:38;12.50;94.40
7218;DHT22;3650;53.580;10.094;2024-03-22T06:39:05;12.50;94.40
7218;DHT22;3650;53.580;10.094;2024-03-22T06:41:34;12.50;94.50
7218;DHT22;3650;53.580;10.094;2024-03-22T06:44:01;12.50;94.50
7218;DHT22;3650;53.580;10.094;2024-03-22T06:46:28;12.50;94.60
7218;DHT22;3650;53.580;10.094;2024-03-22T06:48:54;12.50;94.70
7218;DHT22;3650;53.580;10.094;2024-03-22T06:51:21;12.50;94.80
7218;DHT22;3650;53.580;10.094;2024-03-22T06:53:47;12.50;94.80
7218;DHT22;3650;53.580;10.094;2024-03-22T06:56:14;12.50;94.80
7218;DHT22;3650;53.580;10.094;2024-03-22T06:58:41;12.50;94.80
7218;DHT22;3650;53.580;10.094;2024-03-22T07:01:08;12.60;94.90
7218;DHT22;3650;53.580;10.094;2024-03-22T07:03:34;12.60;95.00
7218;DHT22;3650;53.580;10.094;2024-03-22T07:06:01;12.60;95.00
7218;DHT22;3650;53.580;10.094;2024-03-22T07:08:27;12.60;95.00
7218;DHT22;3650;53.580;10.094;2024-03-22T07:10:54;12.60;95.00
7218;DHT22;3650;53.580;10.094;2024-03-22T07:13:20;12.60;95.00
7218;DHT22;3650;53.580;10.094;2024-03-22T07:15:48;12.60;95.00
7218;DHT22;3650;53.580;10.094;2024-03-22T07:18:14;12.60;95.10
7218;DHT22;3650;53.580;10.094;2024-03-22T07:20:41;12.60;95.20
7218;DHT22;3650;53.580;10.094;2024-03-22T07:23:07;12.60;95.30
7218;DHT22;3650;53.580;10.094;2024-03-22T07:25:34;12.60;95.30
7218;DHT22;3650;53.580;10.094;2024-03-22T07:28:00;12.60;95.40
7218;DHT22;3650;53.580;10.094;2024-03-22T07:30:27;12.60;95.40
7218;DHT22;3650;53.580;10.094;2024-03-22T07:32:54;12.70;95.40
7218;DHT22;3650;53.580;10.094;2024-03-22T07:35:21;12.70;95.50
7218;DHT22;3650;53.580;10.094;2024-03-22T07:37:47;12.70;95.50
7218;DHT22;3650;53.580;10.094;2024-03-22T07:40:13;12.70;95.80
7218;DHT22;3650;53.580;10.094;2024-03-22T07:42:39;12.70;95.40
7218;DHT22;3650;53.580;10.094;2024-03-22T07:45:07;12.70;95.40
7218;DHT22;3650;53.580;10.094;2024-03-22T07:47:33;12.70;95.50
7218;DHT22;3650;53.580;10.094;2024-03-22T07:50:01;12.70;95.50
7218;DHT22;3650;53.580;10.094;2024-03-22T07:52:27;12.70;95.60
7218;DHT22;3650;53.580;10.094;2024-03-22T07:54:54;12.70;95.60
7218;DHT22;3650;53.580;10.094;2024-03-22T07:57:19;12.70;95.60
7218;DHT22;3650;53.580;10.094;2024-03-22T07:59:46;12.80;95.60
7218;DHT22;3650;53.580;10.094;2024-03-22T08:02:13;12.80;95.80
7218;DHT22;3650;53.580;10.094;2024-03-22T08:04:40;12.80;95.80
7218;DHT22;3650;53.580;10.094;2024-03-22T08:07:07;12.80;95.80
7218;DHT22;3650;53.580;10.094;2024-03-22T08:09:34;12.80;95.80
7218;DHT22;3650;53.580;10.094;2024-03-22T08:11:59;12.80;96.00
7218;DHT22;3650;53.580;10.094;2024-03-22T08:14:26;12.80;96.10
7218;DHT22;3650;53.580;10.094;2024-03-22T08:16:52;12.80;96.10
7218;DHT22;3650;53.580;10.094;2024-03-22T08:19:19;12.90;96.20
7218;DHT22;3650;53.580;10.094;2024-03-22T08:21:44;12.90;96.20
7218;DHT22;3650;53.580;10.094;2024-03-22T08:24:13;12.90;96.20
7218;DHT22;3650;53.580;10.094;2024-03-22T08:26:38;12.90;96.30
7218;DHT22;3650;53.580;10.094;2024-03-22T08:29:05;12.90;96.30
7218;DHT22;3650;53.580;10.094;2024-03-22T08:31:31;12.90;96.40
7218;DHT22;3650;53.580;10.094;2024-03-22T08:33:58;12.90;96.70
7218;DHT22;3650;53.580;10.094;2024-03-22T08:36:24;12.90;97.40
7218;DHT22;3650;53.580;10.094;2024-03-22T08:38:51;12.90;97.60
7218;DHT22;3650;53.580;10.094;2024-03-22T08:41:18;12.90;97.60
7218;DHT22;3650;53.580;10.094;2024-03-22T08:43:45;12.90;97.50
7218;DHT22;3650;53.580;10.094;2024-03-22T08:46:11;12.90;97.30
7218;DHT22;3650;53.580;10.094;2024-03-22T08:48:38;12.90;97.30
7218;DHT22;3650;53.580;10.094;2024-03-22T08:51:04;12.90;97.20
7218;DHT22;3650;53.580;10.094;2024-03-22T08:53:31;13.00;97.30
7218;DHT22;3650;53.580;10.094;2024-03-22T08:55:56;13.00;97.50
7218;DHT22;3650;53.580;10.094;2024-03-22T08:58:25;13.00;97.50
7218;DHT22;3650;53.580;10.094;2024-03-22T09:00:51;13.00;97.60
7218;DHT22;3650;53.580;10.094;2024-03-22T09:03:19;13.00;97.70
7218;DHT22;3650;53.580;10.094;2024-03-22T09:05:46;12.90;97.60
7218;DHT22;3650;53.580;10.094;2024-03-22T09:08:13;12.90;97.70
7218;DHT22;3650;53.580;10.094;2024-03-22T09:10:39;13.00;97.90
7218;DHT22;3650;53.580;10.094;2024-03-22T09:13:06;13.00;98.00
7218;DHT22;3650;53.580;10.094;2024-03-22T09:15:33;13.00;98.20
7218;DHT22;3650;53.580;10.094;2024-03-22T09:18:00;13.00;98.40
7218;DHT22;3650;53.580;10.094;2024-03-22T09:20:26;13.00;98.60
7218;DHT22;3650;53.580;10.094;2024-03-22T09:22:53;13.00;98.60
7218;DHT22;3650;53.580;10.094;2024-03-22T09:25:19;12.90;98.60
7218;DHT22;3650;53.580;10.094;2024-03-22T09:27:46;12.90;98.70
7218;DHT22;3650;53.580;10.094;2024-03-22T09:30:12;12.90;99.00
7218;DHT22;3650;53.580;10.094;2024-03-22T09:32:41;12.90;99.10
7218;DHT22;3650;53.580;10.094;2024-03-22T09:35:08;12.90;99.00
7218;DHT22;3650;53.580;10.094;2024-03-22T09:37:35;12.90;99.20
7218;DHT22;3650;53.580;10.094;2024-03-22T09:40:01;12.90;99.20
7218;DHT22;3650;53.580;10.094;2024-03-22T09:42:33;12.90;99.20
7218;DHT22;3650;53.580;10.094;2024-03-22T09:45:06;12.90;99.20
7218;DHT22;3650;53.580;10.094;2024-03-22T09:47:34;12.90;99.20
7218;DHT22;3650;53.580;10.094;2024-03-22T09:50:04;12.90;99.20
7218;DHT22;3650;53.580;10.094;2024-03-22T09:52:33;12.90;99.20
7218;DHT22;3650;53.580;10.094;2024-03-22T09:54:59;12.90;98.90
7218;DHT22;3650;53.580;10.094;2024-03-22T09:57:27;12.90;98.80
7218;DHT22;3650;53.580;10.094;2024-03-22T09:59:54;12.90;98.80
7218;DHT22;3650;53.580;10.094;2024-03-22T10:02:21;12.90;99.00
7218;DHT22;3650;53.580;10.094;2024-03-22T10:04:47;12.90;99.20
7218;DHT22;3650;53.580;10.094;2024-03-22T10:07:15;12.90;99.20
7218;DHT22;3650;53.580;10.094;2024-03-22T10:09:41;12.90;99.40
7218;DHT22;3650;53.580;10.094;2024-03-22T10:12:09;12.90;99.60
7218;DHT22;3650;53.580;10.094;2024-03-22T10:14:35;12.90;99.80
7218;DHT22;3650;53.580;10.094;2024-03-22T10:17:02;12.90;99.90
7218;DHT22;3650;53.580;10.094;2024-03-22T10:19:28;12.90;99.90
7218;DHT22;3650;53.580;10.094;2024-03-22T10:22:02;12.80;99.90
7218;DHT22;3650;53.580;10.094;2024-03-22T10:24:29;12.90;99.90
7218;DHT22;3650;53.580;10.094;2024-03-22T10:26:57;12.90;99.90
7218;DHT22;3650;53.580;10.094;2024-03-22T10:29:23;12.90;99.90
7218;DHT22;3650;53.580;10.094;2024-03-22T10:31:51;12.90;99.90
7218;DHT22;3650;53.580;10.094;2024-03-22T10:34:18;12.90;99.90
7218;DHT22;3650;53.580;10.094;2024-03-22T10:36:46;12.90;99.90
7218;DHT22;3650;53.580;10.094;2024-03-22T10:39:15;12.90;99.90
7218;DHT22;3650;53.580;10.094;2024-03-22T10:41:44;12.90;99.90
7218;DHT22;3650;53.580;10.094;2024-03-22T10:44:10;12.90;99.90
7218;DHT22;3650;53.580;10.094;2024-03-22T10:46:38;12.90;99.90
7218;DHT22;3650;53.580;10.094;2024-03-22T10:49:07;12.90;99.90
7218;DHT22;3650;53.580;10.094;2024-03-22T10:51:35;12.90;99.90
7218;DHT22;3650;53.580;10.094;2024-03-22T10:54:02;12.80;99.90
7218;DHT22;3650;53.580;10.094;2024-03-22T10:56:30;12.80;99.90
7218;DHT22;3650;53.580;10.094;2024-03-22T10:59:03;12.80;99.90
7218;DHT22;3650;53.580;10.094;2024-03-22T11:01:31;12.80;99.90
7218;DHT22;3650;53.580;10.094;2024-03-22T11:04:05;12.80;99.90
7218;DHT22;3650;53.580;10.094;2024-03-22T11:06:36;12.80;99.90
7218;DHT22;3650;53.580;10.094;2024-03-22T11:09:02;12.80;99.90
7218;DHT22;3650;53.580;10.094;2024-03-22T11:11:30;12.80;99.90
7218;DHT22;3650;53.580;10.094;2024-03-22T11:13:58;12.70;99.90
7218;DHT22;3650;53.580;10.094;2024-03-22T11:16:25;12.70;99.90
7218;DHT22;3650;53.580;10.094;2024-03-22T11:18:50;12.60;99.90
7218;DHT22;3650;53.580;10.094;2024-03-22T11:21:18;12.60;99.90
7218;DHT22;3650;53.580;10.094;2024-03-22T11:23:45;12.60;99.90
7218;DHT22;3650;53.580;10.094;2024-03-22T11:26:12;12.60;99.90
7218;DHT22;3650;53.580;10.094;2024-03-22T11:28:38;12.60;99.90
7218;DHT22;3650;53.580;10.094;2024-03-22T11:31:08;12.60;99.90
7218;DHT22;3650;53.580;10.094;2024-03-22T11:33:34;12.60;99.90
7218;DHT22;3650;53.580;10.094;2024-03-22T11:36:02;12.60;99.90
7218;DHT22;3650;53.580;10.094;2024-03-22T11:38:30;12.60;99.90
7218;DHT22;3650;53.580;10.094;2024-03-22T11:40:59;12.50;99.90
7218;DHT22;3650;53.580;10.094;2024-03-22T11:43:26;12.50;99.90
7218;DHT22;3650;53.580;10.094;2024-03-22T11:45:53;12.50;99.90
7218;DHT22;3650;53.580;10.094;2024-03-22T11:48:20;12.60;99.90
7218;DHT22;3650;53.580;10.094;2024-03-22T11:50:47;12.60;99.90
7218;DHT22;3650;53.580;10.094;2024-03-22T11:53:15;12.60;99.90
7218;DHT22;3650;53.580;10.094;2024-03-22T11:55:42;12.50;99.90
7218;DHT22;3650;53.580;10.094;2024-03-22T11:58:09;12.60;99.90
7218;DHT22;3650;53.580;10.094;2024-03-22T12:00:36;12.50;99.90
7218;DHT22;3650;53.580;10.094;2024-03-22T12:03:04;12.60;99.90
7218;DHT22;3650;53.580;10.094;2024-03-22T12:05:32;12.60;99.90
7218;DHT22;3650;53.580;10.094;2024-03-22T12:07:58;12.60;99.90
7218;DHT22;3650;53.580;10.094;2024-03-22T12:10:25;12.60;99.90
7218;DHT22;3650;53.580;10.094;2024-03-22T12:12:51;12.50;99.90
7218;DHT22;3650;53.580;10.094;2024-03-22T12:15:19;12.60;99.90
7218;DHT22;3650;53.580;10.094;2024-03-22T12:17:45;12.60;99.90
7218;DHT22;3650;53.580;10.094;2024-03-22T12:20:11;12.60;99.90
7218;DHT22;3650;53.580;10.094;2024-03-22T12:22:39;12.60;99.90
7218;DHT22;3650;53.580;10.094;2024-03-22T12:25:06;12.60;99.90
7218;DHT22;3650;53.580;10.094;2024-03-22T12:27:32;12.60;99.90
7218;DHT22;3650;53.580;10.094;2024-03-22T12:29:59;12.60;99.90
7218;DHT22;3650;53.580;10.094;2024-03-22T12:32:25;12.60;99.90
7218;DHT22;3650;53.580;10.094;2024-03-22T12:34:52;12.60;99.90
7218;DHT22;3650;53.580;10.094;2024-03-22T12:37:18;12.60;99.90
7218;DHT22;3650;53.580;10.094;2024-03-22T12:39:46;12.60;99.90
7218;DHT22;3650;53.580;10.094;2024-03-22T12:42:12;12.60;99.90
7218;DHT22;3650;53.580;10.094;2024-03-22T12:44:39;12.60;99.90
7218;DHT22;3650;53.580;10.094;2024-03-22T12:47:05;12.60;99.90
7218;DHT22;3650;53.580;10.094;2024-03-22T12:49:32;12.60;99.90
7218;DHT22;3650;53.580;10.094;2024-03-22T12:51:58;12.60;99.90
7218;DHT22;3650;53.580;10.094;2024-03-22T12:54:25;12.60;99.90
7218;DHT22;3650;53.580;10.094;2024-03-22T12:56:53;12.70;99.90
7218;DHT22;3650;53.580;10.094;2024-03-22T12:59:20;12.60;99.90
7218;DHT22;3650;53.580;10.094;2024-03-22T13:01:46;12.60;99.90
7218;DHT22;3650;53.580;10.094;2024-03-22T13:04:13;12.60;99.90
7218;DHT22;3650;53.580;10.094;2024-03-22T13:06:39;12.60;99.90
7218;DHT22;3650;53.580;10.094;2024-03-22T13:09:05;12.60;99.90
7218;DHT22;3650;53.580;10.094;2024-03-22T13:11:32;12.60;99.90
7218;DHT22;3650;53.580;10.094;2024-03-22T13:14:00;12.60;99.90
7218;DHT22;3650;53.580;10.094;2024-03-22T13:16:26;12.60;99.90
7218;DHT22;3650;53.580;10.094;2024-03-22T13:18:53;12.50;99.90
7218;DHT22;3650;53.580;10.094;2024-03-22T13:21:19;12.50;99.90
7218;DHT22;3650;53.580;10.094;2024-03-22T13:23:45;12.50;99.90
7218;DHT22;3650;53.580;10.094;2024-03-22T13:26:11;12.50;99.90
7218;DHT22;3650;53.580;10.094;2024-03-22T13:28:38;12.40;99.90
7218;DHT22;3650;53.580;10.094;2024-03-22T13:31:05;12.40;99.90
7218;DHT22;3650;53.580;10.094;2024-03-22T13:33:33;12.40;99.90
7218;DHT22;3650;53.580;10.094;2024-03-22T13:35:59;12.30;99.90
7218;DHT22;3650;53.580;10.094;2024-03-22T13:38:26;12.30;99.90
7218;DHT22;3650;53.580;10.094;2024-03-22T13:40:54;12.30;99.90
7218;DHT22;3650;53.580;10.094;2024-03-22T13:43:22;12.30;99.90
7218;DHT22;3650;53.580;10.094;2024-03-22T13:45:50;12.30;99.90
7218;DHT22;3650;53.580;10.094;2024-03-22T13:48:21;12.20;99.90
7218;DHT22;3650;53.580;10.094;2024-03-22T13:50:50;12.20;99.90
7218;DHT22;3650;53.580;10.094;2024-03-22T13:53:17;12.00;99.90
7218;DHT22;3650;53.580;10.094;2024-03-22T13:55:43;12.10;99.90
7218;DHT22;3650;53.580;10.094;2024-03-22T13:58:10;12.10;99.90
7218;DHT22;3650;53.580;10.094;2024-03-22T14:00:36;12.10;99.90
7218;DHT22;3650;53.580;10.094;2024-03-22T14:03:04;12.10;99.90
7218;DHT22;3650;53.580;10.094;2024-03-22T14:05:31;12.10;99.90
7218;DHT22;3650;53.580;10.094;2024-03-22T14:07:58;12.10;99.90
7218;DHT22;3650;53.580;10.094;2024-03-22T14:10:24;12.00;99.90
7218;DHT22;3650;53.580;10.094;2024-03-22T14:12:52;12.00;99.90
7218;DHT22;3650;53.580;10.094;2024-03-22T14:15:18;12.00;99.90
7218;DHT22;3650;53.580;10.094;2024-03-22T14:17:45;12.00;99.90
7218;DHT22;3650;53.580;10.094;2024-03-22T14:20:11;12.00;99.90
7218;DHT22;3650;53.580;10.094;2024-03-22T14:22:39;12.00;99.90
7218;DHT22;3650;53.580;10.094;2024-03-22T14:25:06;12.00;99.90
7218;DHT22;3650;53.580;10.094;2024-03-22T14:27:34;12.00;99.90
7218;DHT22;3650;53.580;10.094;2024-03-22T14:30:00;12.00;99.90
7218;DHT22;3650;53.580;10.094;2024-03-22T14:32:30;12.00;99.90
7218;DHT22;3650;53.580;10.094;2024-03-22T14:34:56;12.00;99.90
7218;DHT22;3650;53.580;10.094;2024-03-22T14:37:23;11.90;99.90
7218;DHT22;3650;53.580;10.094;2024-03-22T14:39:50;11.90;99.90
7218;DHT22;3650;53.580;10.094;2024-03-22T14:42:17;11.90;99.90
7218;DHT22;3650;53.580;10.094;2024-03-22T14:44:43;11.90;99.90
7218;DHT22;3650;53.580;10.094;2024-03-22T14:47:10;11.80;99.90
7218;DHT22;3650;53.580;10.094;2024-03-22T14:49:36;11.80;99.90
7218;DHT22;3650;53.580;10.094;2024-03-22T14:52:02;11.80;99.90
7218;DHT22;3650;53.580;10.094;2024-03-22T14:54:28;11.70;99.90
7218;DHT22;3650;53.580;10.094;2024-03-22T14:56:56;11.60;99.90
7218;DHT22;3650;53.580;10.094;2024-03-22T14:59:22;11.60;99.90
7218;DHT22;3650;53.580;10.094;2024-03-22T15:01:49;11.60;99.90
7218;DHT22;3650;53.580;10.094;2024-03-22T15:04:15;11.50;99.90
7218;DHT22;3650;53.580;10.094;2024-03-22T15:06:41;11.50;99.90
7218;DHT22;3650;53.580;10.094;2024-03-22T15:09:07;11.50;99.90
7218;DHT22;3650;53.580;10.094;2024-03-22T15:11:36;11.40;99.90
7218;DHT22;3650;53.580;10.094;2024-03-22T15:14:04;11.40;99.90
7218;DHT22;3650;53.580;10.094;2024-03-22T15:16:31;11.40;99.90
7218;DHT22;3650;53.580;10.094;2024-03-22T15:18:57;11.30;99.90
7218;DHT22;3650;53.580;10.094;2024-03-22T15:21:24;11.30;99.90
7218;DHT22;3650;53.580;10.094;2024-03-22T15:23:50;11.30;99.90
7218;DHT22;3650;53.580;10.094;2024-03-22T15:26:16;11.30;99.90
7218;DHT22;3650;53.580;10.094;2024-03-22T15:28:42;11.30;99.90
7218;DHT22;3650;53.580;10.094;2024-03-22T15:31:11;11.30;99.90
7218;DHT22;3650;53.580;10.094;2024-03-22T15:33:37;11.30;99.90
7218;DHT22;3650;53.580;10.094;2024-03-22T15:36:04;11.30;99.90
7218;DHT22;3650;53.580;10.094;2024-03-22T15:38:30;11.30;99.90
7218;DHT22;3650;53.580;10.094;2024-03-22T15:40:57;11.20;98.20